createdAt,value
2018-11-10T00:00:41.528Z,100122.30
2018-11-10T00:03:09.742Z,100124.56
2018-11-10T00:05:37.914Z,100121.78
2018-11-10T00:08:06.219Z,100112.98
2018-11-10T00:10:34.396Z,100113.08
2018-11-10T00:13:02.662Z,100104.59
2018-11-10T00:15:30.902Z,100100.50
2018-11-10T00:17:59.218Z,100101.01
2018-11-10T00:20:27.335Z,100100.78
2018-11-10T00:22:55.666Z,100096.59
2018-11-10T00:25:23.842Z,100089.95
2018-11-10T00:27:52.050Z,100094.09
2018-11-10T00:30:20.194Z,100094.34
2018-11-10T00:32:48.461Z,100091.65
2018-11-10T00:35:16.722Z,100091.02
2018-11-10T00:37:44.924Z,100095.58
2018-11-10T00:40:14.353Z,100088.06
2018-11-10T00:42:42.996Z,100086.41
2018-11-10T00:45:11.406Z,100080.70
2018-11-10T00:47:39.704Z,100073.20
2018-11-10T00:50:08.631Z,100076.61
2018-11-10T00:52:37.253Z,100075.98
2018-11-10T00:55:08.195Z,100066.47
2018-11-10T00:57:36.427Z,100067.91
2018-11-10T01:00:04.991Z,100070.71
2018-11-10T01:02:33.300Z,100074.52
2018-11-10T01:05:01.501Z,100081.45
2018-11-10T01:07:29.923Z,100082.44
2018-11-10T01:09:58.151Z,100082.84
2018-11-10T01:12:26.317Z,100083.27
2018-11-10T01:14:54.489Z,100083.47
2018-11-10T01:17:22.708Z,100081.59
2018-11-10T01:19:50.859Z,100079.33
2018-11-10T01:22:19.304Z,100077.56
2018-11-10T01:24:47.422Z,100070.98
2018-11-10T01:27:15.597Z,100077.48
2018-11-10T01:29:43.761Z,100076.44
2018-11-10T01:32:11.877Z,100078.11
2018-11-10T01:34:40.068Z,100076.02
2018-11-10T01:37:08.191Z,100073.75
2018-11-10T01:39:36.400Z,100073.96
2018-11-10T01:42:05.509Z,100073.84
2018-11-10T01:44:33.695Z,100070.44
2018-11-10T01:47:01.816Z,100077.48
2018-11-10T01:49:30.034Z,100066.42
2018-11-10T01:51:58.229Z,100062.60
2018-11-10T01:54:26.609Z,100066.00
2018-11-10T01:56:54.794Z,100063.53
2018-11-10T01:59:23.692Z,100050.23
2018-11-10T02:01:52.049Z,100055.06
2018-11-10T02:04:20.162Z,100061.55
2018-11-10T02:06:48.395Z,100055.19
2018-11-10T02:09:17.028Z,100059.30
2018-11-10T02:11:45.218Z,100057.44
2018-11-10T02:14:13.518Z,100056.73
2018-11-10T02:16:41.808Z,100054.95
2018-11-10T02:19:09.972Z,100053.71
2018-11-10T02:21:38.194Z,100043.28
2018-11-10T02:24:06.340Z,100041.34
2018-11-10T02:26:34.534Z,100033.09
2018-11-10T02:29:02.788Z,100025.56
2018-11-10T02:31:30.967Z,100024.52
2018-11-10T02:33:59.133Z,100032.06
2018-11-10T02:36:27.247Z,100018.98
2018-11-10T02:38:55.470Z,100014.63
2018-11-10T02:41:23.587Z,100026.06
2018-11-10T02:43:51.711Z,100025.16
2018-11-10T02:46:19.837Z,100023.30
2018-11-10T02:48:47.938Z,100018.73
2018-11-10T02:51:16.126Z,100014.70
2018-11-10T02:53:44.233Z,100012.73
2018-11-10T02:56:12.401Z,100008.48
2018-11-10T02:58:40.621Z,100010.66
2018-11-10T03:01:08.946Z,100013.05
2018-11-10T03:03:37.021Z,99999.94
2018-11-10T03:06:05.214Z,100003.55
2018-11-10T03:08:33.471Z,100009.12
2018-11-10T03:11:01.762Z,100005.30
2018-11-10T03:13:29.921Z,100003.67
2018-11-10T03:15:58.079Z,100009.09
2018-11-10T03:18:26.186Z,100007.11
2018-11-10T03:20:54.277Z,100000.23
2018-11-10T03:23:22.417Z,99998.17
2018-11-10T03:25:50.589Z,99985.72
2018-11-10T03:28:18.805Z,99990.49
2018-11-10T03:30:47.066Z,99993.66
2018-11-10T03:33:15.166Z,99987.77
2018-11-10T03:35:43.319Z,99978.94
2018-11-10T03:38:11.780Z,99981.82
2018-11-10T03:40:40.023Z,99985.70
2018-11-10T03:43:08.206Z,99989.00
2018-11-10T03:45:36.369Z,99998.05
2018-11-10T03:48:04.670Z,100001.05
2018-11-10T03:50:32.823Z,99994.95
2018-11-10T03:53:00.938Z,99989.92
2018-11-10T03:55:29.075Z,99991.18
2018-11-10T03:57:57.764Z,99995.20
2018-11-10T04:00:25.994Z,99991.48
2018-11-10T04:02:54.082Z,99996.02
2018-11-10T04:05:22.517Z,99987.39
2018-11-10T04:07:50.800Z,99979.36
2018-11-10T04:10:18.915Z,99976.77
2018-11-10T04:12:48.006Z,99976.27
2018-11-10T04:15:16.232Z,99974.12
2018-11-10T04:17:44.356Z,99972.07
2018-11-10T04:20:12.587Z,99969.06
2018-11-10T04:22:40.684Z,99974.92
2018-11-10T04:25:10.244Z,99967.39
2018-11-10T04:27:39.360Z,99969.36
2018-11-10T04:30:09.172Z,99957.00
2018-11-10T04:32:37.344Z,99961.44
2018-11-10T04:35:07.387Z,99967.38
2018-11-10T04:37:35.745Z,99962.52
2018-11-10T04:40:04.366Z,99959.34
2018-11-10T04:42:32.522Z,99956.88
2018-11-10T04:45:00.808Z,99957.79
2018-11-10T04:47:28.942Z,99944.69
2018-11-10T04:49:57.186Z,99937.82
2018-11-10T04:52:25.278Z,99944.51
2018-11-10T04:54:53.422Z,99932.03
2018-11-10T04:57:21.528Z,99928.86
2018-11-10T04:59:49.674Z,99928.65
2018-11-10T05:02:18.597Z,99921.91
2018-11-10T05:04:46.789Z,99923.88
2018-11-10T05:07:14.926Z,99916.67
2018-11-10T05:09:43.067Z,99918.43
2018-11-10T05:12:11.819Z,99917.39
2018-11-10T05:14:39.998Z,99918.52
2018-11-10T05:17:08.139Z,99921.41
2018-11-10T05:19:36.349Z,99919.02
2018-11-10T05:22:04.590Z,99912.87
2018-11-10T05:24:33.327Z,99912.24
2018-11-10T05:27:01.580Z,99910.61
2018-11-10T05:29:29.761Z,99911.41
2018-11-10T05:31:57.903Z,99904.20
2018-11-10T05:34:26.059Z,99912.95
2018-11-10T05:36:54.311Z,99906.80
2018-11-10T05:39:22.470Z,99920.70
2018-11-10T05:41:50.571Z,99920.82
2018-11-10T05:44:18.788Z,99927.39
2018-11-10T05:46:46.931Z,99914.42
2018-11-10T05:49:15.566Z,99921.11
2018-11-10T05:51:43.666Z,99924.00
2018-11-10T05:54:11.912Z,99912.78
2018-11-10T05:56:40.191Z,99912.24
2018-11-10T05:59:08.758Z,99907.84
2018-11-10T06:01:36.948Z,99910.81
2018-11-10T06:04:05.366Z,99914.00
2018-11-10T06:06:33.508Z,99909.38
2018-11-10T06:09:01.861Z,99913.08
2018-11-10T06:11:29.940Z,99919.86
2018-11-10T06:13:58.217Z,99915.75
2018-11-10T06:16:26.338Z,99906.67
2018-11-10T06:18:54.505Z,99914.83
2018-11-10T06:21:22.646Z,99907.80
2018-11-10T06:23:50.749Z,99906.17
2018-11-10T06:26:19.193Z,99901.44
2018-11-10T06:28:47.499Z,99901.23
2018-11-10T06:31:15.673Z,99896.16
2018-11-10T06:33:43.894Z,99896.16
2018-11-10T06:36:12.683Z,99897.00
2018-11-10T06:38:40.906Z,99893.92
2018-11-10T06:41:09.166Z,99894.84
2018-11-10T06:43:37.412Z,99888.55
2018-11-10T06:46:05.686Z,99890.18
2018-11-10T06:48:40.756Z,99895.67
2018-11-10T06:51:09.027Z,99892.58
2018-11-10T06:53:37.561Z,99889.37
2018-11-10T06:56:06.121Z,99890.70
2018-11-10T06:58:34.241Z,99895.53
2018-11-10T07:01:02.436Z,99894.31
2018-11-10T07:03:31.066Z,99891.65
2018-11-10T07:05:59.138Z,99897.92
2018-11-10T07:08:27.467Z,99903.28
2018-11-10T07:10:55.609Z,99897.27
2018-11-10T07:13:23.771Z,99896.74
2018-11-10T07:15:52.015Z,99900.14
2018-11-10T07:18:20.151Z,99897.02
2018-11-10T07:20:48.345Z,99900.92
2018-11-10T07:23:16.550Z,99901.62
2018-11-10T07:25:44.693Z,99905.41
2018-11-10T07:28:12.887Z,99902.47
2018-11-10T07:30:41.347Z,99893.51
2018-11-10T07:33:09.529Z,99895.61
2018-11-10T07:35:37.747Z,99890.27
2018-11-10T07:38:06.049Z,99892.88
2018-11-10T07:40:34.424Z,99885.22
2018-11-10T07:43:02.606Z,99893.30
2018-11-10T07:45:30.929Z,99895.77
2018-11-10T07:47:59.147Z,99891.44
2018-11-10T07:50:27.276Z,99890.21
2018-11-10T07:52:55.424Z,99894.78
2018-11-10T07:55:23.598Z,99892.25
2018-11-10T07:57:51.834Z,99897.06
2018-11-10T08:00:20.080Z,99894.97
2018-11-10T08:02:48.356Z,99897.62
2018-11-10T08:05:16.810Z,99898.97
2018-11-10T08:07:45.084Z,99892.02
2018-11-10T08:10:13.899Z,99890.87
2018-11-10T08:12:42.280Z,99882.20
2018-11-10T08:15:14.395Z,99880.84
2018-11-10T08:17:42.604Z,99879.80
2018-11-10T08:20:11.350Z,99880.84
2018-11-10T08:22:39.663Z,99882.62
2018-11-10T08:25:10.611Z,99883.00
2018-11-10T08:27:38.786Z,99874.08
2018-11-10T08:30:09.633Z,99870.17
2018-11-10T08:32:37.834Z,99877.96
2018-11-10T08:35:07.892Z,99867.88
2018-11-10T08:37:36.120Z,99864.09
2018-11-10T08:40:05.347Z,99852.82
2018-11-10T08:42:33.623Z,99852.40
2018-11-10T08:45:01.845Z,99842.58
2018-11-10T08:47:30.310Z,99840.75
2018-11-10T08:49:58.930Z,99830.23
2018-11-10T08:52:27.339Z,99828.21
2018-11-10T08:54:55.530Z,99821.55
2018-11-10T08:57:25.402Z,99816.91
2018-11-10T08:59:53.600Z,99807.17
2018-11-10T09:02:21.775Z,99814.64
2018-11-10T09:04:49.959Z,99807.84
2018-11-10T09:07:18.758Z,99809.10
2018-11-10T09:09:46.994Z,99798.55
2018-11-10T09:12:15.121Z,99802.27
2018-11-10T09:14:43.605Z,99807.02
2018-11-10T09:17:11.807Z,99818.09
2018-11-10T09:19:40.001Z,99836.47
2018-11-10T09:22:09.360Z,99854.56
2018-11-10T09:24:37.614Z,99860.51
2018-11-10T09:27:05.939Z,99850.88
2018-11-10T09:29:34.342Z,99828.55
2018-11-10T09:32:02.543Z,99836.22
2018-11-10T09:34:31.477Z,99839.16
2018-11-10T09:37:00.066Z,99839.20
2018-11-10T09:39:28.276Z,99837.52
2018-11-10T09:41:56.950Z,99853.25
2018-11-10T09:44:31.959Z,99853.55
2018-11-10T09:47:00.385Z,99862.55
2018-11-10T09:49:28.662Z,99869.89
2018-11-10T09:51:56.939Z,99886.45
2018-11-10T09:54:25.256Z,99884.34
2018-11-10T09:56:53.491Z,99880.78
2018-11-10T09:59:21.668Z,99881.39
2018-11-10T10:01:51.107Z,99894.55
2018-11-10T10:04:19.384Z,99882.31
2018-11-10T10:06:47.906Z,99881.89
2018-11-10T10:09:16.254Z,99883.00
2018-11-10T10:11:44.658Z,99878.28
2018-11-10T10:14:13.279Z,99878.61
2018-11-10T10:16:42.259Z,99882.01
2018-11-10T10:19:10.442Z,99881.00
2018-11-10T10:21:39.006Z,99866.83
2018-11-10T10:24:07.494Z,99863.89
2018-11-10T10:26:35.814Z,99857.20
2018-11-10T10:29:04.602Z,99865.45
2018-11-10T10:31:33.119Z,99865.50
2018-11-10T10:34:01.411Z,99852.20
2018-11-10T10:36:29.644Z,99833.81
2018-11-10T10:38:57.986Z,99831.78
2018-11-10T10:41:26.423Z,99822.58
2018-11-10T10:43:54.698Z,99813.05
2018-11-10T10:46:23.047Z,99833.58
2018-11-10T10:48:51.489Z,99810.27
2018-11-10T10:51:19.571Z,99797.59
2018-11-10T10:53:48.013Z,99805.72
2018-11-10T10:56:16.348Z,99806.61
2018-11-10T10:58:44.644Z,99810.34
2018-11-10T11:01:18.952Z,99811.59
2018-11-10T11:03:50.111Z,99821.66
2018-11-10T11:06:18.315Z,99812.92
2018-11-10T11:08:47.380Z,99807.53
2018-11-10T11:11:15.671Z,99805.63
2018-11-10T11:13:43.854Z,99816.03
2018-11-10T11:16:12.211Z,99794.34
2018-11-10T11:18:40.429Z,99800.77
2018-11-10T11:21:08.587Z,99796.23
2018-11-10T11:23:36.785Z,99791.62
2018-11-10T11:26:05.441Z,99798.80
2018-11-10T11:28:33.617Z,99792.11
2018-11-10T11:31:01.807Z,99792.02
2018-11-10T11:33:29.997Z,99794.91
2018-11-10T11:35:58.182Z,99788.05
2018-11-10T11:38:26.365Z,99784.41
2018-11-10T11:40:54.609Z,99781.11
2018-11-10T11:43:22.699Z,99776.36
2018-11-10T11:45:50.893Z,99779.17
2018-11-10T11:48:19.070Z,99776.48
2018-11-10T11:50:48.074Z,99777.10
2018-11-10T11:53:16.265Z,99780.19
2018-11-10T11:55:44.607Z,99775.62
2018-11-10T11:58:13.450Z,99779.53
2018-11-10T12:00:41.477Z,99774.06
2018-11-10T12:03:09.676Z,99772.84
2018-11-10T12:05:37.840Z,99766.71
2018-11-10T12:08:06.009Z,99773.16
2018-11-10T12:10:34.312Z,99784.41
2018-11-10T12:13:02.545Z,99790.58
2018-11-10T12:15:30.863Z,99789.25
2018-11-10T12:17:58.993Z,99782.73
2018-11-10T12:20:27.138Z,99781.32
2018-11-10T12:22:55.330Z,99779.70
2018-11-10T12:25:23.540Z,99784.38
2018-11-10T12:27:51.710Z,99778.29
2018-11-10T12:30:19.938Z,99778.49
2018-11-10T12:32:48.056Z,99781.22
2018-11-10T12:35:16.318Z,99781.23
2018-11-10T12:37:44.655Z,99788.38
2018-11-10T12:40:13.608Z,99779.07
2018-11-10T12:42:42.043Z,99780.42
2018-11-10T12:45:11.527Z,99771.65
2018-11-10T12:47:40.268Z,99784.00
2018-11-10T12:50:10.494Z,99786.30
2018-11-10T12:52:38.915Z,99792.55
2018-11-10T12:55:08.048Z,99784.09
2018-11-10T12:57:36.180Z,99779.46
2018-11-10T13:00:05.433Z,99786.53
2018-11-10T13:02:33.645Z,99782.42
2018-11-10T13:05:02.068Z,99786.78
2018-11-10T13:07:30.271Z,99774.27
2018-11-10T13:09:58.519Z,99774.02
2018-11-10T13:12:26.719Z,99775.89
2018-11-10T13:14:55.611Z,99767.74
2018-11-10T13:17:24.922Z,99768.27
2018-11-10T13:19:52.993Z,99770.14
2018-11-10T13:22:21.988Z,99775.57
2018-11-10T13:24:50.225Z,99766.91
2018-11-10T13:27:18.630Z,99775.08
2018-11-10T13:29:46.873Z,99776.42
2018-11-10T13:32:15.082Z,99768.25
2018-11-10T13:34:43.330Z,99776.65
2018-11-10T13:37:11.522Z,99761.16
2018-11-10T13:39:39.682Z,99760.62
2018-11-10T13:42:07.933Z,99757.60
2018-11-10T13:44:36.172Z,99763.80
2018-11-10T13:47:04.510Z,99759.98
2018-11-10T13:49:32.691Z,99760.81
2018-11-10T13:52:01.518Z,99758.09
2018-11-10T13:54:29.574Z,99757.83
2018-11-10T13:56:57.814Z,99768.85
2018-11-10T13:59:25.964Z,99764.97
2018-11-10T14:01:54.202Z,99756.29
2018-11-10T14:04:22.467Z,99762.52
2018-11-10T14:06:50.711Z,99763.62
2018-11-10T14:09:19.126Z,99767.64
2018-11-10T14:11:47.706Z,99760.02
2018-11-10T14:14:16.069Z,99768.12
2018-11-10T14:16:44.253Z,99771.63
2018-11-10T14:19:12.882Z,99770.77
2018-11-10T14:21:41.118Z,99771.03
2018-11-10T14:24:09.320Z,99767.16
2018-11-10T14:26:37.510Z,99768.59
2018-11-10T14:29:06.390Z,99767.73
2018-11-10T14:31:34.673Z,99772.33
2018-11-10T14:34:02.858Z,99774.45
2018-11-10T14:36:31.165Z,99776.27
2018-11-10T14:38:59.508Z,99773.25
2018-11-10T14:41:27.717Z,99782.67
2018-11-10T14:43:55.838Z,99781.42
2018-11-10T14:46:24.058Z,99781.20
2018-11-10T14:48:52.239Z,99790.91
2018-11-10T14:51:20.432Z,99795.63
2018-11-10T14:53:48.736Z,99792.30
2018-11-10T14:56:16.953Z,99791.03
2018-11-10T14:58:45.245Z,99787.65
2018-11-10T15:01:13.908Z,99794.13
2018-11-10T15:03:42.094Z,99791.09
2018-11-10T15:06:10.285Z,99801.05
2018-11-10T15:08:38.460Z,99804.64
2018-11-10T15:11:07.465Z,99803.23
2018-11-10T15:13:35.625Z,99807.75
2018-11-10T15:16:04.431Z,99806.34
2018-11-10T15:18:32.697Z,99810.41
2018-11-10T15:21:00.913Z,99809.34
2018-11-10T15:23:29.083Z,99814.19
2018-11-10T15:25:57.243Z,99809.20
2018-11-10T15:28:25.437Z,99815.06
2018-11-10T15:30:53.671Z,99817.20
2018-11-10T15:33:21.839Z,99812.75
2018-11-10T15:35:49.993Z,99813.91
2018-11-10T15:38:18.127Z,99814.70
2018-11-10T15:40:46.268Z,99818.70
2018-11-10T15:43:14.489Z,99820.69
2018-11-10T15:45:42.885Z,99818.21
2018-11-10T15:48:11.039Z,99820.45
2018-11-10T15:50:39.232Z,99816.81
2018-11-10T15:53:07.419Z,99820.09
2018-11-10T15:55:35.598Z,99817.97
2018-11-10T15:58:03.821Z,99817.50
2018-11-10T16:00:31.982Z,99821.62
2018-11-10T16:03:00.152Z,99817.42
2018-11-10T16:05:28.323Z,99823.19
2018-11-10T16:07:56.514Z,99824.08
2018-11-10T16:10:24.806Z,99819.02
2018-11-10T16:12:53.940Z,99820.28
2018-11-10T16:15:22.116Z,99827.95
2018-11-10T16:17:50.277Z,99823.70
2018-11-10T16:20:19.497Z,99823.57
2018-11-10T16:22:49.833Z,99819.70
2018-11-10T16:25:18.375Z,99822.11
2018-11-10T16:27:46.828Z,99824.73
2018-11-10T16:30:16.261Z,99830.28
2018-11-10T16:32:44.729Z,99829.59
2018-11-10T16:35:12.971Z,99824.43
2018-11-10T16:37:41.623Z,99829.23
2018-11-10T16:40:13.871Z,99823.33
2018-11-10T16:42:43.163Z,99826.88
2018-11-10T16:45:12.082Z,99826.97
2018-11-10T16:47:40.270Z,99832.55
2018-11-10T16:50:09.164Z,99835.25
2018-11-10T16:52:37.534Z,99832.55
2018-11-10T16:55:06.532Z,99830.19
2018-11-10T16:57:34.649Z,99834.22
2018-11-10T17:00:02.869Z,99833.75
2018-11-10T17:02:31.148Z,99833.51
2018-11-10T17:04:59.371Z,99836.09
2018-11-10T17:07:27.562Z,99829.95
2018-11-10T17:09:55.709Z,99824.54
2018-11-10T17:12:23.879Z,99828.84
2018-11-10T17:14:52.095Z,99820.73
2018-11-10T17:17:20.266Z,99828.83
2018-11-10T17:19:48.443Z,99827.56
2018-11-10T17:22:16.739Z,99821.64
2018-11-10T17:24:44.838Z,99823.96
2018-11-10T17:27:13.155Z,99820.34
2018-11-10T17:29:41.364Z,99821.30
2018-11-10T17:32:10.107Z,99825.49
2018-11-10T17:34:38.333Z,99821.17
2018-11-10T17:37:06.568Z,99824.39
2018-11-10T17:39:43.524Z,99828.09
2018-11-10T17:42:11.816Z,99825.39
2018-11-10T17:44:48.024Z,99822.31
2018-11-10T17:47:17.351Z,99823.83
2018-11-10T17:49:45.777Z,99817.70
2018-11-10T17:52:15.655Z,99819.52
2018-11-10T17:54:43.828Z,99825.91
2018-11-10T17:57:12.891Z,99814.62
2018-11-10T17:59:41.080Z,99826.59
2018-11-10T18:02:31.826Z,99821.30
2018-11-10T18:05:00.090Z,99823.07
2018-11-10T18:07:29.035Z,99826.31
2018-11-10T18:09:57.829Z,99820.09
2018-11-10T18:12:26.522Z,99816.86
2018-11-10T18:14:54.915Z,99818.86
2018-11-10T18:17:24.129Z,99825.14
2018-11-10T18:19:52.412Z,99820.22
2018-11-10T18:22:20.645Z,99822.04
2018-11-10T18:24:48.773Z,99827.36
2018-11-10T18:27:17.636Z,99828.56
2018-11-10T18:29:45.835Z,99828.84
2018-11-10T18:32:14.072Z,99825.32
2018-11-10T18:34:42.470Z,99823.38
2018-11-10T18:37:10.655Z,99824.88
2018-11-10T18:39:39.007Z,99828.33
2018-11-10T18:42:07.155Z,99823.00
2018-11-10T18:44:35.340Z,99827.16
2018-11-10T18:47:03.620Z,99825.57
2018-11-10T18:49:31.864Z,99831.61
2018-11-10T18:52:00.143Z,99824.02
2018-11-10T18:54:28.336Z,99822.11
2018-11-10T18:56:56.634Z,99829.42
2018-11-10T18:59:24.889Z,99818.69
2018-11-10T19:01:53.196Z,99817.58
2018-11-10T19:04:21.457Z,99818.34
2018-11-10T19:06:56.743Z,99814.12
2018-11-10T19:09:25.089Z,99817.34
2018-11-10T19:11:54.093Z,99808.17
2018-11-10T19:14:22.527Z,99805.14
2018-11-10T19:16:50.725Z,99806.38
2018-11-10T19:19:19.043Z,99810.64
2018-11-10T19:21:47.266Z,99813.20
2018-11-10T19:24:15.477Z,99815.28
2018-11-10T19:26:43.713Z,99816.47
2018-11-10T19:29:11.927Z,99819.12
2018-11-10T19:31:40.237Z,99817.25
2018-11-10T19:34:08.509Z,99814.53
2018-11-10T19:36:36.825Z,99820.92
2018-11-10T19:39:08.222Z,99818.63
2018-11-10T19:41:36.559Z,99819.72
2018-11-10T19:44:06.913Z,99817.48
2018-11-10T19:46:42.058Z,99822.95
2018-11-10T19:49:11.321Z,99822.23
2018-11-10T19:51:39.653Z,99829.34
2018-11-10T19:54:07.898Z,99832.51
2018-11-10T19:56:37.304Z,99830.64
2018-11-10T19:59:06.475Z,99835.33
2018-11-10T20:01:34.687Z,99827.07
2018-11-10T20:04:02.947Z,99824.58
2018-11-10T20:06:31.136Z,99821.88
2018-11-10T20:08:59.391Z,99820.89
2018-11-10T20:11:27.751Z,99821.59
2018-11-10T20:13:56.473Z,99823.90
2018-11-10T20:16:24.567Z,99830.45
2018-11-10T20:18:52.786Z,99834.48
2018-11-10T20:21:20.989Z,99834.72
2018-11-10T20:23:49.770Z,99832.34
2018-11-10T20:26:17.952Z,99840.28
2018-11-10T20:28:46.176Z,99840.28
2018-11-10T20:31:14.378Z,99841.63
2018-11-10T20:33:43.153Z,99843.80
2018-11-10T20:36:11.336Z,99836.33
2018-11-10T20:38:40.140Z,99834.73
2018-11-10T20:41:08.314Z,99830.64
2018-11-10T20:43:37.150Z,99819.80
2018-11-10T20:46:06.019Z,99821.14
2018-11-10T20:48:34.406Z,99820.03
2018-11-10T20:51:02.765Z,99811.42
2018-11-10T20:53:31.231Z,99818.76
2018-11-10T20:55:59.777Z,99821.98
2018-11-10T20:58:28.026Z,99816.36
2018-11-10T21:00:56.941Z,99814.83
2018-11-10T21:03:25.164Z,99814.28
2018-11-10T21:05:53.474Z,99805.83
2018-11-10T21:08:21.673Z,99820.83
2018-11-10T21:10:49.978Z,99820.10
2018-11-10T21:13:18.261Z,99833.81
2018-11-10T21:15:47.315Z,99843.38
2018-11-10T21:18:16.215Z,99834.23
2018-11-10T21:20:44.523Z,99839.98
2018-11-10T21:23:12.779Z,99846.34
2018-11-10T21:25:41.023Z,99847.70
2018-11-10T21:28:09.207Z,99846.86
2018-11-10T21:30:37.494Z,99848.73
2018-11-10T21:33:05.848Z,99850.67
2018-11-10T21:35:34.234Z,99844.22
2018-11-10T21:38:02.328Z,99845.38
2018-11-10T21:40:31.302Z,99845.09
2018-11-10T21:42:59.525Z,99850.16
2018-11-10T21:45:28.475Z,99846.49
2018-11-10T21:47:56.775Z,99844.03
2018-11-10T21:50:25.503Z,99849.13
2018-11-10T21:52:53.728Z,99855.03
2018-11-10T21:55:22.018Z,99855.41
2018-11-10T21:57:50.217Z,99853.31
2018-11-10T22:00:20.007Z,99856.29
2018-11-10T22:02:48.572Z,99850.91
2018-11-10T22:05:17.215Z,99848.59
2018-11-10T22:07:45.440Z,99851.08
2018-11-10T22:10:15.923Z,99847.55
2018-11-10T22:12:44.343Z,99850.48
2018-11-10T22:15:14.072Z,99849.73
2018-11-10T22:17:43.048Z,99840.22
2018-11-10T22:20:13.558Z,99842.11
2018-11-10T22:22:41.850Z,99846.31
2018-11-10T22:25:11.669Z,99836.98
2018-11-10T22:27:41.227Z,99835.14
2018-11-10T22:30:11.785Z,99840.53
2018-11-10T22:32:40.312Z,99840.14
2018-11-10T22:35:09.604Z,99840.73
2018-11-10T22:37:38.134Z,99834.37
2018-11-10T22:40:08.788Z,99834.46
2018-11-10T22:42:37.825Z,99843.63
2018-11-10T22:45:08.164Z,99838.78
2018-11-10T22:47:37.615Z,99833.41
2018-11-10T22:50:08.944Z,99835.45
2018-11-10T22:52:37.257Z,99837.20
2018-11-10T22:55:06.068Z,99834.75
2018-11-10T22:57:34.290Z,99839.10
2018-11-10T23:00:03.127Z,99828.19
2018-11-10T23:02:31.341Z,99827.03
2018-11-10T23:04:59.554Z,99823.00
2018-11-10T23:07:27.699Z,99818.89
2018-11-10T23:09:55.935Z,99822.11
2018-11-10T23:12:24.162Z,99822.56
2018-11-10T23:14:52.325Z,99824.95
2018-11-10T23:17:20.590Z,99827.05
2018-11-10T23:19:48.671Z,99828.95
2018-11-10T23:22:16.867Z,99825.63
2018-11-10T23:24:45.021Z,99817.33
2018-11-10T23:27:13.197Z,99815.12
2018-11-10T23:29:41.355Z,99816.92
2018-11-10T23:32:09.537Z,99810.80
2018-11-10T23:34:37.638Z,99815.02
2018-11-10T23:37:05.877Z,99817.53
2018-11-10T23:39:34.069Z,99818.11
2018-11-10T23:42:02.268Z,99816.47
2018-11-10T23:44:30.425Z,99816.92
2018-11-10T23:46:58.561Z,99815.88
2018-11-10T23:49:27.344Z,99801.21
2018-11-10T23:51:55.555Z,99808.09
2018-11-10T23:54:23.705Z,99808.38
2018-11-10T23:56:51.863Z,99808.25
2018-11-10T23:59:20.081Z,99808.95
